sensor_id;sensor_type;location;lat;lon;timestamp;pressure;altitude;pressure_sealevel;temperature;humidity
61394;BME280;48555;50.952;-0.120;2024-02-26T00:00:25;98822.22;;;7.69;96.91
61394;BME280;48555;50.952;-0.120;2024-02-26T00:02:50;98808.81;;;7.74;96.67
61394;BME280;48555;50.952;-0.120;2024-02-26T00:05:16;98810.28;;;7.67;96.52
61394;BME280;48555;50.952;-0.120;2024-02-26T00:07:41;98823.59;;;7.64;97.05
61394;BME280;48555;50.952;-0.120;2024-02-26T00:10:08;98819.47;;;7.61;97.46
61394;BME280;48555;50.952;-0.120;2024-02-26T00:12:33;98832.34;;;7.63;97.02
61394;BME280;48555;50.952;-0.120;2024-02-26T00:14:59;98830.72;;;7.71;96.52
61394;BME280;48555;50.952;-0.120;2024-02-26T00:17:24;98830.00;;;7.69;96.87
61394;BME280;48555;50.952;-0.120;2024-02-26T00:19:50;98840.69;;;7.66;97.52
61394;BME280;48555;50.952;-0.120;2024-02-26T00:22:15;98824.69;;;7.61;97.84
61394;BME280;48555;50.952;-0.120;2024-02-26T00:24:40;98841.38;;;7.68;98.45
61394;BME280;48555;50.952;-0.120;2024-02-26T00:27:06;98833.84;;;7.56;98.85
61394;BME280;48555;50.952;-0.120;2024-02-26T00:29:32;98841.94;;;7.62;98.84
61394;BME280;48555;50.952;-0.120;2024-02-26T00:31:57;98840.84;;;7.65;98.58
61394;BME280;48555;50.952;-0.120;2024-02-26T00:34:23;98849.59;;;7.73;98.18
61394;BME280;48555;50.952;-0.120;2024-02-26T00:36:49;98837.56;;;7.63;98.39
61394;BME280;48555;50.952;-0.120;2024-02-26T00:39:14;98831.41;;;7.73;97.83
61394;BME280;48555;50.952;-0.120;2024-02-26T00:41:40;98848.09;;;7.71;97.80
61394;BME280;48555;50.952;-0.120;2024-02-26T00:44:06;98861.66;;;7.74;97.85
61394;BME280;48555;50.952;-0.120;2024-02-26T00:46:31;98820.03;;;7.45;98.05
61394;BME280;48555;50.952;-0.120;2024-02-26T00:48:57;98854.66;;;7.75;97.87
61394;BME280;48555;50.952;-0.120;2024-02-26T00:51:22;98880.25;;;7.89;97.44
61394;BME280;48555;50.952;-0.120;2024-02-26T00:53:47;98871.78;;;7.78;98.10
61394;BME280;48555;50.952;-0.120;2024-02-26T00:56:13;98873.13;;;7.82;98.25
61394;BME280;48555;50.952;-0.120;2024-02-26T00:58:38;98872.88;;;7.75;99.24
61394;BME280;48555;50.952;-0.120;2024-02-26T01:01:04;98867.41;;;7.68;99.20
61394;BME280;48555;50.952;-0.120;2024-02-26T01:03:29;98867.81;;;7.73;99.50
61394;BME280;48555;50.952;-0.120;2024-02-26T01:05:54;98874.94;;;7.71;99.87
61394;BME280;48555;50.952;-0.120;2024-02-26T01:08:20;98899.72;;;7.85;99.67
61394;BME280;48555;50.952;-0.120;2024-02-26T01:10:45;98881.50;;;7.76;100.00
61394;BME280;48555;50.952;-0.120;2024-02-26T01:13:11;98884.38;;;7.72;100.00
61394;BME280;48555;50.952;-0.120;2024-02-26T01:15:36;98880.41;;;7.68;100.00
61394;BME280;48555;50.952;-0.120;2024-02-26T01:18:02;98871.38;;;7.72;100.00
61394;BME280;48555;50.952;-0.120;2024-02-26T01:20:27;98893.69;;;7.65;100.00
61394;BME280;48555;50.952;-0.120;2024-02-26T01:22:53;98901.75;;;7.72;100.00
61394;BME280;48555;50.952;-0.120;2024-02-26T01:25:18;98892.16;;;7.82;99.72
61394;BME280;48555;50.952;-0.120;2024-02-26T01:27:43;98896.97;;;7.87;99.49
61394;BME280;48555;50.952;-0.120;2024-02-26T01:30:10;98896.44;;;7.83;99.56
61394;BME280;48555;50.952;-0.120;2024-02-26T01:32:35;98913.81;;;7.83;99.73
61394;BME280;48555;50.952;-0.120;2024-02-26T01:35:01;98898.19;;;7.63;100.00
61394;BME280;48555;50.952;-0.120;2024-02-26T01:37:28;98911.38;;;7.62;100.00
61394;BME280;48555;50.952;-0.120;2024-02-26T01:39:55;98918.34;;;7.81;100.00
61394;BME280;48555;50.952;-0.120;2024-02-26T01:42:20;98930.13;;;7.94;99.63
61394;BME280;48555;50.952;-0.120;2024-02-26T01:44:46;98926.41;;;7.87;100.00
61394;BME280;48555;50.952;-0.120;2024-02-26T01:47:11;98929.56;;;8.01;99.35
61394;BME280;48555;50.952;-0.120;2024-02-26T01:49:38;98941.06;;;7.98;98.91
61394;BME280;48555;50.952;-0.120;2024-02-26T01:52:06;98962.03;;;7.96;98.78
61394;BME280;48555;50.952;-0.120;2024-02-26T01:54:35;98917.88;;;7.46;100.00
61394;BME280;48555;50.952;-0.120;2024-02-26T01:57:02;98955.75;;;7.80;99.72
61394;BME280;48555;50.952;-0.120;2024-02-26T01:59:28;98957.22;;;7.63;99.98
61394;BME280;48555;50.952;-0.120;2024-02-26T02:01:57;98955.81;;;7.59;99.46
61394;BME280;48555;50.952;-0.120;2024-02-26T02:04:24;98959.81;;;7.72;99.53
61394;BME280;48555;50.952;-0.120;2024-02-26T02:06:50;98952.97;;;7.71;98.96
61394;BME280;48555;50.952;-0.120;2024-02-26T02:09:17;98963.38;;;7.62;99.42
61394;BME280;48555;50.952;-0.120;2024-02-26T02:11:43;98956.91;;;7.46;99.85
61394;BME280;48555;50.952;-0.120;2024-02-26T02:14:09;98945.84;;;7.44;99.28
61394;BME280;48555;50.952;-0.120;2024-02-26T02:16:34;98977.94;;;7.24;100.00
61394;BME280;48555;50.952;-0.120;2024-02-26T02:19:00;98975.78;;;7.39;100.00
61394;BME280;48555;50.952;-0.120;2024-02-26T02:21:25;98958.94;;;7.33;99.41
61394;BME280;48555;50.952;-0.120;2024-02-26T02:23:50;99019.63;;;7.53;99.07
61394;BME280;48555;50.952;-0.120;2024-02-26T02:26:16;99015.53;;;7.20;100.00
61394;BME280;48555;50.952;-0.120;2024-02-26T02:28:42;99000.72;;;7.11;100.00
61394;BME280;48555;50.952;-0.120;2024-02-26T02:31:08;98998.56;;;7.16;100.00
61394;BME280;48555;50.952;-0.120;2024-02-26T02:33:34;99020.84;;;7.49;99.39
61394;BME280;48555;50.952;-0.120;2024-02-26T02:36:00;98979.13;;;7.20;98.92
61394;BME280;48555;50.952;-0.120;2024-02-26T02:38:26;99019.72;;;7.42;98.20
61394;BME280;48555;50.952;-0.120;2024-02-26T02:40:54;99024.59;;;7.35;98.19
61394;BME280;48555;50.952;-0.120;2024-02-26T02:43:19;99036.50;;;7.28;98.11
61394;BME280;48555;50.952;-0.120;2024-02-26T02:45:45;99042.75;;;7.16;98.70
61394;BME280;48555;50.952;-0.120;2024-02-26T02:48:11;99028.16;;;7.24;97.35
61394;BME280;48555;50.952;-0.120;2024-02-26T02:50:36;99033.19;;;7.26;96.72
61394;BME280;48555;50.952;-0.120;2024-02-26T02:53:01;99043.56;;;7.16;96.98
61394;BME280;48555;50.952;-0.120;2024-02-26T02:55:27;99053.59;;;7.21;98.04
61394;BME280;48555;50.952;-0.120;2024-02-26T02:57:53;99013.13;;;6.97;97.40
61394;BME280;48555;50.952;-0.120;2024-02-26T03:00:18;99088.94;;;7.33;96.92
61394;BME280;48555;50.952;-0.120;2024-02-26T03:02:44;99072.63;;;7.31;96.61
61394;BME280;48555;50.952;-0.120;2024-02-26T03:05:10;99094.25;;;7.32;96.88
61394;BME280;48555;50.952;-0.120;2024-02-26T03:07:36;99047.66;;;7.09;96.31
61394;BME280;48555;50.952;-0.120;2024-02-26T03:10:01;99062.13;;;7.12;95.95
61394;BME280;48555;50.952;-0.120;2024-02-26T03:12:26;99086.34;;;7.33;95.72
61394;BME280;48555;50.952;-0.120;2024-02-26T03:14:53;99075.34;;;6.99;96.16
61394;BME280;48555;50.952;-0.120;2024-02-26T03:17:19;99094.78;;;7.25;95.35
61394;BME280;48555;50.952;-0.120;2024-02-26T03:19:45;99099.91;;;7.37;94.07
61394;BME280;48555;50.952;-0.120;2024-02-26T03:22:18;99129.41;;;7.05;96.60
61394;BME280;48555;50.952;-0.120;2024-02-26T03:24:43;99117.88;;;7.19;96.69
61394;BME280;48555;50.952;-0.120;2024-02-26T03:27:09;99127.38;;;7.30;95.88
61394;BME280;48555;50.952;-0.120;2024-02-26T03:29:35;99137.00;;;7.39;95.63
61394;BME280;48555;50.952;-0.120;2024-02-26T03:32:01;99138.78;;;7.38;95.37
61394;BME280;48555;50.952;-0.120;2024-02-26T03:34:26;99150.84;;;7.39;95.47
61394;BME280;48555;50.952;-0.120;2024-02-26T03:36:52;99131.75;;;7.08;95.30
61394;BME280;48555;50.952;-0.120;2024-02-26T03:39:17;99136.13;;;7.28;95.63
61394;BME280;48555;50.952;-0.120;2024-02-26T03:41:43;99161.22;;;7.39;94.49
61394;BME280;48555;50.952;-0.120;2024-02-26T03:44:08;99140.56;;;7.17;95.18
61394;BME280;48555;50.952;-0.120;2024-02-26T03:46:33;99164.66;;;7.19;95.34
61394;BME280;48555;50.952;-0.120;2024-02-26T03:48:59;99146.94;;;7.03;95.51
61394;BME280;48555;50.952;-0.120;2024-02-26T03:51:24;99167.50;;;6.95;96.04
61394;BME280;48555;50.952;-0.120;2024-02-26T03:53:49;99169.69;;;6.78;96.84
61394;BME280;48555;50.952;-0.120;2024-02-26T03:56:15;99198.50;;;7.08;95.80
61394;BME280;48555;50.952;-0.120;2024-02-26T03:58:40;99187.38;;;6.85;97.36
61394;BME280;48555;50.952;-0.120;2024-02-26T04:01:09;99214.28;;;6.95;96.78
61394;BME280;48555;50.952;-0.120;2024-02-26T04:03:35;99204.81;;;6.94;96.36
61394;BME280;48555;50.952;-0.120;2024-02-26T04:06:01;99212.44;;;6.86;96.87
61394;BME280;48555;50.952;-0.120;2024-02-26T04:08:27;99202.13;;;6.95;96.77
61394;BME280;48555;50.952;-0.120;2024-02-26T04:10:53;99212.78;;;7.13;95.79
61394;BME280;48555;50.952;-0.120;2024-02-26T04:13:18;99227.69;;;7.32;93.64
61394;BME280;48555;50.952;-0.120;2024-02-26T04:15:44;99235.06;;;6.95;95.48
61394;BME280;48555;50.952;-0.120;2024-02-26T04:18:09;99238.53;;;6.84;96.88
61394;BME280;48555;50.952;-0.120;2024-02-26T04:20:34;99249.38;;;6.89;97.13
61394;BME280;48555;50.952;-0.120;2024-02-26T04:22:59;99245.78;;;7.01;96.62
61394;BME280;48555;50.952;-0.120;2024-02-26T04:25:25;99237.16;;;6.69;98.47
61394;BME280;48555;50.952;-0.120;2024-02-26T04:27:50;99259.22;;;6.74;98.74
61394;BME280;48555;50.952;-0.120;2024-02-26T04:30:15;99256.63;;;6.74;98.34
61394;BME280;48555;50.952;-0.120;2024-02-26T04:32:42;99261.19;;;6.93;97.48
61394;BME280;48555;50.952;-0.120;2024-02-26T04:35:07;99276.09;;;6.91;97.13
61394;BME280;48555;50.952;-0.120;2024-02-26T04:37:33;99271.78;;;7.01;97.12
61394;BME280;48555;50.952;-0.120;2024-02-26T04:39:59;99288.88;;;6.72;97.93
61394;BME280;48555;50.952;-0.120;2024-02-26T04:42:25;99290.66;;;6.71;97.76
61394;BME280;48555;50.952;-0.120;2024-02-26T04:44:50;99275.50;;;6.76;97.06
61394;BME280;48555;50.952;-0.120;2024-02-26T04:47:16;99286.84;;;6.75;96.75
61394;BME280;48555;50.952;-0.120;2024-02-26T04:49:41;99276.63;;;6.63;97.09
61394;BME280;48555;50.952;-0.120;2024-02-26T04:52:06;99320.16;;;6.70;97.11
61394;BME280;48555;50.952;-0.120;2024-02-26T04:54:32;99293.50;;;6.57;96.58
61394;BME280;48555;50.952;-0.120;2024-02-26T04:56:57;99321.81;;;6.60;97.20
61394;BME280;48555;50.952;-0.120;2024-02-26T04:59:22;99323.13;;;6.77;96.18
61394;BME280;48555;50.952;-0.120;2024-02-26T05:01:48;99336.69;;;6.80;95.41
61394;BME280;48555;50.952;-0.120;2024-02-26T05:04:13;99345.53;;;6.89;95.41
61394;BME280;48555;50.952;-0.120;2024-02-26T05:06:38;99342.56;;;6.94;94.40
61394;BME280;48555;50.952;-0.120;2024-02-26T05:09:03;99345.06;;;6.84;95.02
61394;BME280;48555;50.952;-0.120;2024-02-26T05:11:29;99364.53;;;6.90;94.35
61394;BME280;48555;50.952;-0.120;2024-02-26T05:13:54;99357.22;;;6.95;93.74
61394;BME280;48555;50.952;-0.120;2024-02-26T05:16:20;99378.19;;;7.14;92.89
61394;BME280;48555;50.952;-0.120;2024-02-26T05:18:46;99361.09;;;7.00;92.71
61394;BME280;48555;50.952;-0.120;2024-02-26T05:21:12;99386.63;;;7.07;92.91
61394;BME280;48555;50.952;-0.120;2024-02-26T05:23:37;99382.38;;;6.83;94.06
61394;BME280;48555;50.952;-0.120;2024-02-26T05:26:02;99391.00;;;7.06;93.29
61394;BME280;48555;50.952;-0.120;2024-02-26T05:28:28;99397.84;;;7.07;92.40
61394;BME280;48555;50.952;-0.120;2024-02-26T05:30:53;99408.31;;;7.17;91.73
61394;BME280;48555;50.952;-0.120;2024-02-26T05:33:19;99408.56;;;7.14;92.21
61394;BME280;48555;50.952;-0.120;2024-02-26T05:35:44;99415.78;;;7.21;91.55
61394;BME280;48555;50.952;-0.120;2024-02-26T05:38:09;99424.16;;;7.02;91.86
61394;BME280;48555;50.952;-0.120;2024-02-26T05:40:35;99433.50;;;6.94;92.21
61394;BME280;48555;50.952;-0.120;2024-02-26T05:43:00;99433.75;;;7.02;91.35
61394;BME280;48555;50.952;-0.120;2024-02-26T05:45:26;99454.31;;;6.82;91.90
61394;BME280;48555;50.952;-0.120;2024-02-26T05:47:51;99448.75;;;6.87;92.34
61394;BME280;48555;50.952;-0.120;2024-02-26T05:50:17;99452.31;;;6.86;91.93
61394;BME280;48555;50.952;-0.120;2024-02-26T05:52:42;99456.09;;;6.71;92.62
61394;BME280;48555;50.952;-0.120;2024-02-26T05:55:08;99485.34;;;6.73;92.45
61394;BME280;48555;50.952;-0.120;2024-02-26T05:57:34;99480.84;;;6.64;92.87
61394;BME280;48555;50.952;-0.120;2024-02-26T05:59:59;99476.59;;;6.51;93.25
61394;BME280;48555;50.952;-0.120;2024-02-26T06:02:30;99494.88;;;6.50;92.33
61394;BME280;48555;50.952;-0.120;2024-02-26T06:04:56;99483.31;;;6.54;93.06
61394;BME280;48555;50.952;-0.120;2024-02-26T06:07:22;99489.97;;;6.69;92.13
61394;BME280;48555;50.952;-0.120;2024-02-26T06:09:48;99488.53;;;6.65;91.65
61394;BME280;48555;50.952;-0.120;2024-02-26T06:12:13;99519.00;;;6.63;92.18
61394;BME280;48555;50.952;-0.120;2024-02-26T06:14:39;99517.44;;;6.60;91.77
61394;BME280;48555;50.952;-0.120;2024-02-26T06:17:04;99516.03;;;6.56;91.65
61394;BME280;48555;50.952;-0.120;2024-02-26T06:19:29;99534.66;;;6.50;92.01
61394;BME280;48555;50.952;-0.120;2024-02-26T06:21:55;99540.41;;;6.78;90.42
61394;BME280;48555;50.952;-0.120;2024-02-26T06:24:20;99513.00;;;6.85;88.76
61394;BME280;48555;50.952;-0.120;2024-02-26T06:26:47;99538.03;;;6.75;89.54
61394;BME280;48555;50.952;-0.120;2024-02-26T06:29:13;99556.69;;;6.69;90.26
61394;BME280;48555;50.952;-0.120;2024-02-26T06:31:38;99569.53;;;6.70;89.70
61394;BME280;48555;50.952;-0.120;2024-02-26T06:34:04;99560.91;;;6.70;89.05
61394;BME280;48555;50.952;-0.120;2024-02-26T06:36:29;99568.03;;;6.68;88.93
61394;BME280;48555;50.952;-0.120;2024-02-26T06:38:56;99585.75;;;6.50;89.76
61394;BME280;48555;50.952;-0.120;2024-02-26T06:41:22;99597.38;;;6.57;89.27
61394;BME280;48555;50.952;-0.120;2024-02-26T06:43:52;99596.28;;;6.48;89.28
61394;BME280;48555;50.952;-0.120;2024-02-26T06:46:18;99625.44;;;6.52;89.30
61394;BME280;48555;50.952;-0.120;2024-02-26T06:48:43;99617.44;;;6.55;88.60
61394;BME280;48555;50.952;-0.120;2024-02-26T06:51:08;99624.47;;;6.42;89.13
61394;BME280;48555;50.952;-0.120;2024-02-26T06:53:34;99627.97;;;6.41;88.49
61394;BME280;48555;50.952;-0.120;2024-02-26T06:55:59;99628.47;;;6.46;88.78
61394;BME280;48555;50.952;-0.120;2024-02-26T06:58:24;99657.38;;;6.41;88.89
61394;BME280;48555;50.952;-0.120;2024-02-26T07:00:49;99644.34;;;6.54;88.07
61394;BME280;48555;50.952;-0.120;2024-02-26T07:03:15;99674.13;;;6.61;87.57
61394;BME280;48555;50.952;-0.120;2024-02-26T07:05:40;99663.41;;;6.42;87.45
61394;BME280;48555;50.952;-0.120;2024-02-26T07:08:06;99666.94;;;6.41;87.20
61394;BME280;48555;50.952;-0.120;2024-02-26T07:10:31;99684.66;;;6.47;86.88
61394;BME280;48555;50.952;-0.120;2024-02-26T07:12:57;99680.94;;;6.51;87.45
61394;BME280;48555;50.952;-0.120;2024-02-26T07:15:22;99692.38;;;6.48;87.32
61394;BME280;48555;50.952;-0.120;2024-02-26T07:17:47;99690.31;;;6.41;86.47
61394;BME280;48555;50.952;-0.120;2024-02-26T07:20:14;99698.28;;;6.50;85.67
61394;BME280;48555;50.952;-0.120;2024-02-26T07:22:40;99702.94;;;6.21;85.74
61394;BME280;48555;50.952;-0.120;2024-02-26T07:25:06;99718.59;;;6.20;85.62
61394;BME280;48555;50.952;-0.120;2024-02-26T07:27:33;99722.88;;;6.08;86.61
61394;BME280;48555;50.952;-0.120;2024-02-26T07:29:59;99742.72;;;6.09;86.66
61394;BME280;48555;50.952;-0.120;2024-02-26T07:32:24;99733.06;;;6.11;86.33
61394;BME280;48555;50.952;-0.120;2024-02-26T07:34:49;99751.84;;;6.27;86.12
61394;BME280;48555;50.952;-0.120;2024-02-26T07:37:15;99748.84;;;6.21;85.54
61394;BME280;48555;50.952;-0.120;2024-02-26T07:39:40;99756.94;;;6.16;84.80
61394;BME280;48555;50.952;-0.120;2024-02-26T07:42:05;99773.13;;;6.20;84.54
61394;BME280;48555;50.952;-0.120;2024-02-26T07:44:31;99761.69;;;6.22;84.37
61394;BME280;48555;50.952;-0.120;2024-02-26T07:46:56;99785.91;;;6.10;84.05
61394;BME280;48555;50.952;-0.120;2024-02-26T07:49:22;99759.75;;;6.00;84.13
61394;BME280;48555;50.952;-0.120;2024-02-26T07:51:47;99776.16;;;6.13;83.88
61394;BME280;48555;50.952;-0.120;2024-02-26T07:54:12;99800.22;;;6.03;83.26
61394;BME280;48555;50.952;-0.120;2024-02-26T07:56:38;99785.06;;;5.97;83.44
61394;BME280;48555;50.952;-0.120;2024-02-26T07:59:03;99790.84;;;5.87;83.51
61394;BME280;48555;50.952;-0.120;2024-02-26T08:01:28;99801.22;;;5.87;83.83
61394;BME280;48555;50.952;-0.120;2024-02-26T08:03:54;99786.22;;;6.05;82.02
61394;BME280;48555;50.952;-0.120;2024-02-26T08:06:19;99820.41;;;5.85;82.55
61394;BME280;48555;50.952;-0.120;2024-02-26T08:08:44;99814.94;;;5.89;83.31
61394;BME280;48555;50.952;-0.120;2024-02-26T08:11:10;99835.50;;;5.92;82.89
61394;BME280;48555;50.952;-0.120;2024-02-26T08:13:35;99841.53;;;5.93;82.52
61394;BME280;48555;50.952;-0.120;2024-02-26T08:16:01;99836.88;;;5.98;82.14
61394;BME280;48555;50.952;-0.120;2024-02-26T08:18:26;99842.59;;;6.03;81.22
61394;BME280;48555;50.952;-0.120;2024-02-26T08:20:51;99852.44;;;5.98;80.99
61394;BME280;48555;50.952;-0.120;2024-02-26T08:23:17;99873.84;;;6.02;80.89
61394;BME280;48555;50.952;-0.120;2024-02-26T08:25:42;99858.31;;;5.87;81.16
61394;BME280;48555;50.952;-0.120;2024-02-26T08:28:08;99834.41;;;5.69;81.93
61394;BME280;48555;50.952;-0.120;2024-02-26T08:30:33;99862.91;;;5.97;81.57
61394;BME280;48555;50.952;-0.120;2024-02-26T08:32:59;99870.38;;;5.88;80.55
61394;BME280;48555;50.952;-0.120;2024-02-26T08:35:25;99882.97;;;5.95;81.16
61394;BME280;48555;50.952;-0.120;2024-02-26T08:37:50;99880.75;;;5.88;80.52
61394;BME280;48555;50.952;-0.120;2024-02-26T08:40:15;99886.19;;;5.98;80.96
61394;BME280;48555;50.952;-0.120;2024-02-26T08:42:41;99908.41;;;6.02;80.68
61394;BME280;48555;50.952;-0.120;2024-02-26T08:45:07;99910.06;;;6.03;80.17
61394;BME280;48555;50.952;-0.120;2024-02-26T08:47:33;99911.19;;;5.99;80.12
61394;BME280;48555;50.952;-0.120;2024-02-26T08:49:58;99923.13;;;6.02;80.00
61394;BME280;48555;50.952;-0.120;2024-02-26T08:52:23;99921.53;;;6.39;79.14
61394;BME280;48555;50.952;-0.120;2024-02-26T08:54:49;99920.13;;;6.08;79.13
61394;BME280;48555;50.952;-0.120;2024-02-26T08:57:15;99937.06;;;6.01;79.94
61394;BME280;48555;50.952;-0.120;2024-02-26T08:59:40;99949.63;;;6.07;79.67
61394;BME280;48555;50.952;-0.120;2024-02-26T09:02:07;99942.03;;;6.04;79.73
61394;BME280;48555;50.952;-0.120;2024-02-26T09:04:33;99956.13;;;6.40;77.76
61394;BME280;48555;50.952;-0.120;2024-02-26T09:06:59;99961.78;;;6.19;78.94
61394;BME280;48555;50.952;-0.120;2024-02-26T09:09:24;99944.38;;;6.21;77.74
61394;BME280;48555;50.952;-0.120;2024-02-26T09:11:51;99973.38;;;6.01;79.51
61394;BME280;48555;50.952;-0.120;2024-02-26T09:14:18;99961.59;;;6.35;78.55
61394;BME280;48555;50.952;-0.120;2024-02-26T09:16:43;99964.31;;;6.21;77.14
61394;BME280;48555;50.952;-0.120;2024-02-26T09:19:08;99982.56;;;6.32;77.77
61394;BME280;48555;50.952;-0.120;2024-02-26T09:21:34;99979.91;;;6.46;76.87
61394;BME280;48555;50.952;-0.120;2024-02-26T09:23:59;99988.38;;;6.23;76.38
61394;BME280;48555;50.952;-0.120;2024-02-26T09:26:24;99991.34;;;6.04;76.11
61394;BME280;48555;50.952;-0.120;2024-02-26T09:28:49;100001.22;;;6.11;76.41
61394;BME280;48555;50.952;-0.120;2024-02-26T09:31:15;100011.72;;;6.10;76.23
61394;BME280;48555;50.952;-0.120;2024-02-26T09:33:42;100016.84;;;6.24;75.73
61394;BME280;48555;50.952;-0.120;2024-02-26T09:36:07;100006.56;;;6.23;74.52
61394;BME280;48555;50.952;-0.120;2024-02-26T09:38:34;100037.31;;;6.29;74.88
61394;BME280;48555;50.952;-0.120;2024-02-26T09:41:03;100033.88;;;6.28;73.67
61394;BME280;48555;50.952;-0.120;2024-02-26T09:43:34;100015.94;;;6.38;73.36
61394;BME280;48555;50.952;-0.120;2024-02-26T09:46:01;100049.75;;;6.51;72.92
61394;BME280;48555;50.952;-0.120;2024-02-26T09:48:26;100041.00;;;6.52;73.40
61394;BME280;48555;50.952;-0.120;2024-02-26T09:50:53;100077.09;;;6.29;72.87
61394;BME280;48555;50.952;-0.120;2024-02-26T09:53:20;100068.41;;;6.43;72.99
61394;BME280;48555;50.952;-0.120;2024-02-26T09:55:46;100073.66;;;6.56;71.68
61394;BME280;48555;50.952;-0.120;2024-02-26T09:58:12;100097.53;;;6.61;72.11
61394;BME280;48555;50.952;-0.120;2024-02-26T10:00:46;100098.78;;;6.55;72.66
61394;BME280;48555;50.952;-0.120;2024-02-26T10:03:17;100097.81;;;6.44;73.31
61394;BME280;48555;50.952;-0.120;2024-02-26T10:05:46;100107.09;;;6.48;73.61
61394;BME280;48555;50.952;-0.120;2024-02-26T10:08:12;100120.53;;;6.67;73.20
61394;BME280;48555;50.952;-0.120;2024-02-26T10:10:39;100113.44;;;6.56;73.63
61394;BME280;48555;50.952;-0.120;2024-02-26T10:13:05;100122.06;;;6.57;73.56
61394;BME280;48555;50.952;-0.120;2024-02-26T10:15:36;100110.03;;;6.69;73.74
61394;BME280;48555;50.952;-0.120;2024-02-26T10:18:04;100114.50;;;6.67;74.17
61394;BME280;48555;50.952;-0.120;2024-02-26T10:20:29;100134.09;;;6.58;74.28
61394;BME280;48555;50.952;-0.120;2024-02-26T10:22:56;100130.44;;;6.88;74.04
61394;BME280;48555;50.952;-0.120;2024-02-26T10:25:22;100118.69;;;6.82;73.26
61394;BME280;48555;50.952;-0.120;2024-02-26T10:27:47;100130.41;;;6.75;72.71
61394;BME280;48555;50.952;-0.120;2024-02-26T10:30:17;100161.06;;;6.70;74.22
61394;BME280;48555;50.952;-0.120;2024-02-26T10:32:45;100165.72;;;6.65;73.71
61394;BME280;48555;50.952;-0.120;2024-02-26T10:35:15;100168.38;;;6.50;73.51
61394;BME280;48555;50.952;-0.120;2024-02-26T10:37:41;100170.88;;;6.52;74.43
61394;BME280;48555;50.952;-0.120;2024-02-26T10:40:10;100184.50;;;6.55;72.83
61394;BME280;48555;50.952;-0.120;2024-02-26T10:42:36;100179.84;;;6.60;73.21
61394;BME280;48555;50.952;-0.120;2024-02-26T10:45:01;100188.63;;;6.72;72.81
61394;BME280;48555;50.952;-0.120;2024-02-26T10:47:28;100195.00;;;6.94;72.22
61394;BME280;48555;50.952;-0.120;2024-02-26T10:49:54;100216.59;;;6.81;72.20
61394;BME280;48555;50.952;-0.120;2024-02-26T10:52:22;100205.50;;;6.79;72.89
61394;BME280;48555;50.952;-0.120;2024-02-26T10:54:49;100212.22;;;6.82;73.27
61394;BME280;48555;50.952;-0.120;2024-02-26T10:57:17;100216.53;;;6.96;72.11
61394;BME280;48555;50.952;-0.120;2024-02-26T10:59:44;100237.53;;;6.93;72.67
61394;BME280;48555;50.952;-0.120;2024-02-26T11:02:10;100230.78;;;7.30;71.31
61394;BME280;48555;50.952;-0.120;2024-02-26T11:04:37;100221.63;;;7.24;71.29
61394;BME280;48555;50.952;-0.120;2024-02-26T11:07:03;100248.81;;;7.06;72.53
61394;BME280;48555;50.952;-0.120;2024-02-26T11:09:30;100230.09;;;7.14;72.02
61394;BME280;48555;50.952;-0.120;2024-02-26T11:11:57;100227.03;;;7.21;71.12
61394;BME280;48555;50.952;-0.120;2024-02-26T11:14:23;100246.38;;;7.30;71.68
61394;BME280;48555;50.952;-0.120;2024-02-26T11:16:51;100266.94;;;7.20;71.20
61394;BME280;48555;50.952;-0.120;2024-02-26T11:19:18;100251.03;;;7.12;70.97
61394;BME280;48555;50.952;-0.120;2024-02-26T11:21:43;100239.59;;;7.15;70.34
61394;BME280;48555;50.952;-0.120;2024-02-26T11:24:12;100271.16;;;7.09;69.76
61394;BME280;48555;50.952;-0.120;2024-02-26T11:26:48;100263.13;;;6.99;70.84
61394;BME280;48555;50.952;-0.120;2024-02-26T11:29:18;100266.47;;;7.01;71.06
61394;BME280;48555;50.952;-0.120;2024-02-26T11:31:46;100281.97;;;7.30;70.10
61394;BME280;48555;50.952;-0.120;2024-02-26T11:34:11;100288.69;;;7.19;68.70
61394;BME280;48555;50.952;-0.120;2024-02-26T11:36:37;100278.13;;;7.08;69.05
61394;BME280;48555;50.952;-0.120;2024-02-26T11:39:04;100308.75;;;7.17;68.40
61394;BME280;48555;50.952;-0.120;2024-02-26T11:41:30;100294.84;;;7.18;68.24
61394;BME280;48555;50.952;-0.120;2024-02-26T11:44:01;100269.44;;;7.62;65.87
61394;BME280;48555;50.952;-0.120;2024-02-26T11:46:30;100299.22;;;7.96;64.42
61394;BME280;48555;50.952;-0.120;2024-02-26T11:48:58;100303.69;;;7.94;64.07
61394;BME280;48555;50.952;-0.120;2024-02-26T11:51:28;100267.88;;;7.72;64.58
61394;BME280;48555;50.952;-0.120;2024-02-26T11:53:57;100316.81;;;7.92;64.17
61394;BME280;48555;50.952;-0.120;2024-02-26T11:56:24;100312.81;;;7.61;65.86
61394;BME280;48555;50.952;-0.120;2024-02-26T11:58:57;100338.75;;;7.63;66.95
61394;BME280;48555;50.952;-0.120;2024-02-26T12:01:35;100334.63;;;7.99;67.64
61394;BME280;48555;50.952;-0.120;2024-02-26T12:04:02;100327.41;;;7.64;68.85
61394;BME280;48555;50.952;-0.120;2024-02-26T12:06:27;100339.25;;;7.55;69.55
61394;BME280;48555;50.952;-0.120;2024-02-26T12:08:54;100333.66;;;7.34;71.53
61394;BME280;48555;50.952;-0.120;2024-02-26T12:11:20;100337.31;;;7.32;71.96
61394;BME280;48555;50.952;-0.120;2024-02-26T12:13:47;100351.97;;;7.05;73.17
61394;BME280;48555;50.952;-0.120;2024-02-26T12:16:34;100355.63;;;7.03;75.31
61394;BME280;48555;50.952;-0.120;2024-02-26T12:19:03;100360.81;;;7.30;74.99
61394;BME280;48555;50.952;-0.120;2024-02-26T12:21:29;100373.03;;;7.42;75.85
61394;BME280;48555;50.952;-0.120;2024-02-26T12:23:54;100380.44;;;7.21;77.26
61394;BME280;48555;50.952;-0.120;2024-02-26T12:26:19;100385.25;;;6.86;78.66
61394;BME280;48555;50.952;-0.120;2024-02-26T12:28:46;100377.47;;;6.86;77.77
61394;BME280;48555;50.952;-0.120;2024-02-26T12:31:12;100383.47;;;6.87;75.82
61394;BME280;48555;50.952;-0.120;2024-02-26T12:33:37;100383.75;;;6.82;76.57
61394;BME280;48555;50.952;-0.120;2024-02-26T12:36:03;100386.09;;;6.87;76.94
61394;BME280;48555;50.952;-0.120;2024-02-26T12:38:29;100380.88;;;7.01;75.97
61394;BME280;48555;50.952;-0.120;2024-02-26T12:40:55;100387.66;;;7.31;75.23
61394;BME280;48555;50.952;-0.120;2024-02-26T12:43:20;100380.72;;;7.44;73.44
61394;BME280;48555;50.952;-0.120;2024-02-26T12:45:46;100387.41;;;7.48;74.22
61394;BME280;48555;50.952;-0.120;2024-02-26T12:48:12;100383.13;;;7.47;73.44
61394;BME280;48555;50.952;-0.120;2024-02-26T12:50:38;100388.41;;;7.33;73.03